createdAt,value
2022-12-29T07:11:43.591Z,81.01
2022-12-29T07:12:45.652Z,81.11
2022-12-29T07:13:47.677Z,81.35
2022-12-29T07:14:49.667Z,81.35
2022-12-29T07:15:51.706Z,81.56
2022-12-29T07:16:53.833Z,81.66
2022-12-29T07:17:55.811Z,81.66
2022-12-29T07:18:57.854Z,81.76
2022-12-29T07:19:59.900Z,81.76
2022-12-29T07:21:01.935Z,81.87
2022-12-29T07:22:03.967Z,81.87
2022-12-29T07:23:06.020Z,81.87
2022-12-29T07:24:08.032Z,81.76
2022-12-29T07:25:10.092Z,81.97
2022-12-29T07:26:12.149Z,81.93
2022-12-29T07:27:14.193Z,81.83
2022-12-29T07:28:16.186Z,81.62
2022-12-29T07:29:18.248Z,81.62
2022-12-29T07:30:20.304Z,81.52
2022-12-29T07:31:22.468Z,81.52
2022-12-29T07:32:23.473Z,81.62
2022-12-29T07:33:25.500Z,81.73
2022-12-29T07:34:27.531Z,81.83
2022-12-29T07:35:29.552Z,81.83
2022-12-29T07:36:34.614Z,81.83
2022-12-29T07:37:33.421Z,81.83
2022-12-29T07:38:35.444Z,81.83
2022-12-29T07:39:37.467Z,81.83
2022-12-29T07:40:39.600Z,81.62
2022-12-29T07:41:41.640Z,81.48
2022-12-29T07:42:43.685Z,81.38
2022-12-29T07:43:44.879Z,81.28
2022-12-29T07:44:46.914Z,81.18
2022-12-29T07:45:49.052Z,81.04
2022-12-29T07:46:53.688Z,80.83
2022-12-29T07:47:52.539Z,80.73
2022-12-29T07:48:54.561Z,80.63
2022-12-29T07:49:56.584Z,80.63
2022-12-29T07:50:58.618Z,80.63
2022-12-29T07:52:00.688Z,80.49
2022-12-29T07:53:02.695Z,80.42
2022-12-29T07:54:04.727Z,80.42
2022-12-29T07:55:06.736Z,80.38
2022-12-29T07:56:08.773Z,80.38
2022-12-29T07:57:10.809Z,80.52
2022-12-29T07:58:12.841Z,80.52
2022-12-29T07:59:14.879Z,80.38
2022-12-29T08:00:16.921Z,80.52
2022-12-29T08:01:19.100Z,80.63
2022-12-29T08:02:20.248Z,80.59
2022-12-29T08:03:21.299Z,80.49
2022-12-29T08:04:23.386Z,80.49
2022-12-29T08:05:25.060Z,80.49
2022-12-29T08:06:27.133Z,80.38
2022-12-29T08:07:29.153Z,80.28
2022-12-29T08:08:31.218Z,80.18
2022-12-29T08:09:33.247Z,80.18
2022-12-29T08:10:35.283Z,80.08
2022-12-29T08:11:37.332Z,79.98
2022-12-29T08:12:39.363Z,79.84
2022-12-29T08:13:41.403Z,79.74
2022-12-29T08:14:43.429Z,79.63
2022-12-29T08:15:45.478Z,79.53
2022-12-29T08:16:47.530Z,79.43
2022-12-29T08:17:49.578Z,79.33
2022-12-29T08:18:51.671Z,79.22
2022-12-29T08:19:53.696Z,79.33
2022-12-29T08:20:56.020Z,79.43
2022-12-29T08:21:56.973Z,79.33
2022-12-29T08:22:59.026Z,79.33
2022-12-29T08:24:01.104Z,79.33
2022-12-29T08:25:03.804Z,79.33
2022-12-29T08:26:04.725Z,79.22
2022-12-29T08:27:14.638Z,79.33
2022-12-29T08:28:08.192Z,79.33
2022-12-29T08:29:10.223Z,79.22
2022-12-29T08:30:12.257Z,79.22
2022-12-29T08:31:14.357Z,79.12
2022-12-29T08:32:16.394Z,79.12
2022-12-29T08:33:18.439Z,79.22
2022-12-29T08:34:20.474Z,79.33
2022-12-29T08:35:22.512Z,79.12
2022-12-29T08:36:24.042Z,79.22
2022-12-29T08:37:30.892Z,79.22
2022-12-29T08:38:27.522Z,79.22
2022-12-29T08:39:29.547Z,79.22
2022-12-29T08:40:31.580Z,79.22
2022-12-29T08:41:33.617Z,79.12
2022-12-29T08:42:35.658Z,79.02
2022-12-29T08:43:37.694Z,78.78
2022-12-29T08:44:39.719Z,78.78
2022-12-29T08:45:41.787Z,78.78
2022-12-29T08:46:43.853Z,78.88
2022-12-29T08:47:45.963Z,78.88
2022-12-29T08:48:48.003Z,78.88
2022-12-29T08:49:50.048Z,78.78
2022-12-29T08:50:52.075Z,78.78
2022-12-29T08:51:54.116Z,78.68
2022-12-29T08:52:56.156Z,78.68
2022-12-29T08:53:58.169Z,78.68
2022-12-29T08:55:00.215Z,78.47
2022-12-29T08:56:05.088Z,78.47
2022-12-29T08:57:04.366Z,78.16
2022-12-29T08:58:06.402Z,77.92
2022-12-29T08:59:08.443Z,77.72
2022-12-29T09:00:10.478Z,77.41
2022-12-29T09:01:12.556Z,77.28
2022-12-29T09:02:18.781Z,77.28
2022-12-29T09:03:25.893Z,77.28
2022-12-29T09:04:18.372Z,77.17
2022-12-29T09:05:19.475Z,76.97
2022-12-29T09:06:21.663Z,77.17
2022-12-29T09:07:23.688Z,77.52
2022-12-29T09:08:25.689Z,77.62
2022-12-29T09:09:27.277Z,77.41
2022-12-29T09:10:29.340Z,77.28
2022-12-29T09:11:31.382Z,77.07
2022-12-29T09:12:36.518Z,76.73
2022-12-29T09:13:35.556Z,76.62
2022-12-29T09:14:37.592Z,76.22
2022-12-29T09:15:39.709Z,75.87
2022-12-29T09:16:41.782Z,75.98
2022-12-29T09:17:43.794Z,75.87
2022-12-29T09:18:45.837Z,75.57
2022-12-29T09:19:47.869Z,75.57
2022-12-29T09:20:49.907Z,75.57
2022-12-29T09:21:51.943Z,75.67
2022-12-29T09:22:53.945Z,75.47
2022-12-29T09:23:55.975Z,75.26
2022-12-29T09:24:58.027Z,75.26
2022-12-29T09:26:00.078Z,75.26
2022-12-29T09:27:02.095Z,75.37
2022-12-29T09:28:04.130Z,75.06
2022-12-29T09:29:06.177Z,75.13
2022-12-29T09:30:08.240Z,75.26
2022-12-29T09:31:10.317Z,75.03
2022-12-29T09:32:18.234Z,74.72
2022-12-29T09:33:13.790Z,74.62
2022-12-29T09:34:15.839Z,74.27
2022-12-29T09:35:17.872Z,74.27
2022-12-29T09:36:20.866Z,74.18
2022-12-29T09:37:21.796Z,73.97
2022-12-29T09:38:23.833Z,74.07
2022-12-29T09:39:25.170Z,73.63
2022-12-29T09:40:27.202Z,73.53
2022-12-29T09:41:39.020Z,73.43
2022-12-29T09:42:31.121Z,73.33
2022-12-29T09:43:33.134Z,73.12
2022-12-29T09:44:35.187Z,73.12
2022-12-29T09:45:37.205Z,73.12
2022-12-29T09:46:39.336Z,73.12
2022-12-29T09:47:41.356Z,73.12
2022-12-29T09:48:43.342Z,73.02
2022-12-29T09:49:45.403Z,73.12
2022-12-29T09:50:47.435Z,73.02
2022-12-29T09:51:49.477Z,73.02
2022-12-29T09:52:51.513Z,72.92
2022-12-29T09:53:53.541Z,72.71
2022-12-29T09:55:02.907Z,72.61
2022-12-29T09:55:57.019Z,72.71
2022-12-29T09:56:59.045Z,72.51
2022-12-29T09:58:01.055Z,72.31
2022-12-29T09:59:03.091Z,72.21
2022-12-29T10:00:05.146Z,72.21
2022-12-29T10:01:07.212Z,72.21
2022-12-29T10:02:09.358Z,72.00
2022-12-29T10:03:10.557Z,71.86
2022-12-29T10:04:11.608Z,71.56
2022-12-29T10:05:13.635Z,71.46
2022-12-29T10:06:15.647Z,71.36
2022-12-29T10:07:29.601Z,71.36
2022-12-29T10:08:19.119Z,71.56
2022-12-29T10:09:21.126Z,71.66
2022-12-29T10:10:23.148Z,71.56
2022-12-29T10:11:25.272Z,71.56
2022-12-29T10:12:26.817Z,71.77
2022-12-29T10:13:28.847Z,71.90
2022-12-29T10:14:30.295Z,72.00
2022-12-29T10:15:32.348Z,72.21
2022-12-29T10:16:34.421Z,72.31
2022-12-29T10:17:36.525Z,72.31
2022-12-29T10:18:38.572Z,72.31
2022-12-29T10:19:40.588Z,72.31
2022-12-29T10:20:42.625Z,72.24
2022-12-29T10:21:44.654Z,72.21
2022-12-29T10:22:46.698Z,72.44
2022-12-29T10:23:48.719Z,72.34
2022-12-29T10:24:50.753Z,72.34
2022-12-29T10:25:52.771Z,72.44
2022-12-29T10:26:55.376Z,72.44
2022-12-29T10:27:56.271Z,72.65
2022-12-29T10:28:58.325Z,72.65
2022-12-29T10:30:00.338Z,72.65
2022-12-29T10:31:08.500Z,72.75
2022-12-29T10:32:03.815Z,72.79
2022-12-29T10:33:05.836Z,72.88
2022-12-29T10:34:07.868Z,72.99
2022-12-29T10:35:09.903Z,73.09
2022-12-29T10:36:11.940Z,73.40
2022-12-29T10:37:13.954Z,73.19
2022-12-29T10:38:15.974Z,73.19
2022-12-29T10:39:17.998Z,72.99
2022-12-29T10:40:20.016Z,72.85
2022-12-29T10:41:22.060Z,72.44
2022-12-29T10:42:24.072Z,72.24
2022-12-29T10:43:26.168Z,72.00
2022-12-29T10:44:28.180Z,71.90
2022-12-29T10:45:30.258Z,71.90
2022-12-29T10:46:32.253Z,71.90
2022-12-29T10:47:34.291Z,71.80
2022-12-29T10:48:36.310Z,71.70
2022-12-29T10:49:38.343Z,71.70
2022-12-29T10:50:40.428Z,71.46
2022-12-29T10:51:42.502Z,71.16
2022-12-29T10:52:44.536Z,70.71
2022-12-29T10:53:46.565Z,70.51
2022-12-29T10:54:48.596Z,70.51
2022-12-29T10:55:50.608Z,70.41
2022-12-29T10:56:53.268Z,70.20
2022-12-29T10:57:54.217Z,70.41
2022-12-29T10:58:56.237Z,70.37
2022-12-29T10:59:58.250Z,70.17
2022-12-29T11:01:00.377Z,70.17
2022-12-29T11:02:02.765Z,70.27
2022-12-29T11:03:03.961Z,70.17
2022-12-29T11:04:04.999Z,69.16
2022-12-29T11:05:06.991Z,65.35
2022-12-29T11:06:09.030Z,63.67
2022-12-29T11:07:15.862Z,63.50
2022-12-29T11:08:12.507Z,64.00
2022-12-29T11:09:14.535Z,63.26
2022-12-29T11:10:16.603Z,63.26
2022-12-29T11:11:18.621Z,62.32
2022-12-29T11:12:20.656Z,62.96
2022-12-29T11:13:22.687Z,63.62
2022-12-29T11:14:24.693Z,64.67
2022-12-29T11:15:26.724Z,65.64
2022-12-29T11:16:28.811Z,66.59
2022-12-29T11:17:30.811Z,67.33
2022-12-29T11:18:32.845Z,67.63
2022-12-29T11:19:40.512Z,67.97
2022-12-29T11:20:36.292Z,68.18
2022-12-29T11:21:38.294Z,68.07
2022-12-29T11:22:40.348Z,67.84
2022-12-29T11:23:42.424Z,67.74
2022-12-29T11:24:44.450Z,67.84
2022-12-29T11:25:46.478Z,67.84
2022-12-29T11:26:48.508Z,67.74
2022-12-29T11:27:50.530Z,67.50
2022-12-29T11:28:52.573Z,67.30
2022-12-29T11:29:54.593Z,67.50
2022-12-29T11:30:56.603Z,67.50
2022-12-29T11:31:58.712Z,67.71
2022-12-29T11:33:00.739Z,67.74
2022-12-29T11:34:02.788Z,67.84
2022-12-29T11:35:04.812Z,67.84
2022-12-29T11:36:06.821Z,67.84
2022-12-29T11:37:08.845Z,68.04
2022-12-29T11:38:10.871Z,68.14
2022-12-29T11:39:14.273Z,68.04
2022-12-29T11:40:14.089Z,68.28
2022-12-29T11:41:16.106Z,68.38
2022-12-29T11:42:18.116Z,68.48
2022-12-29T11:43:20.157Z,68.78
2022-12-29T11:44:22.178Z,68.89
2022-12-29T11:45:24.206Z,68.68
2022-12-29T11:46:26.272Z,68.58
2022-12-29T11:47:28.272Z,68.58
2022-12-29T11:48:30.304Z,68.58
2022-12-29T11:49:32.360Z,68.78
2022-12-29T11:50:34.348Z,68.99
2022-12-29T11:51:36.368Z,68.89
2022-12-29T11:52:38.398Z,68.89
2022-12-29T11:53:40.461Z,69.02
2022-12-29T11:54:42.493Z,69.43
2022-12-29T11:55:44.532Z,69.53
2022-12-29T11:56:46.547Z,69.73
2022-12-29T11:57:48.577Z,69.94
2022-12-29T11:58:50.594Z,69.83
2022-12-29T11:59:52.595Z,69.73
2022-12-29T12:00:54.629Z,69.43
2022-12-29T12:01:56.795Z,69.39
2022-12-29T12:02:57.900Z,68.99
2022-12-29T12:03:58.894Z,68.99
2022-12-29T12:05:00.928Z,69.19
2022-12-29T12:06:02.940Z,69.29
2022-12-29T12:07:04.936Z,68.99
2022-12-29T12:08:06.974Z,68.89
2022-12-29T12:09:08.973Z,68.75
2022-12-29T12:10:11.014Z,68.65
2022-12-29T12:11:13.037Z,68.48
2022-12-29T12:12:15.061Z,68.78
2022-12-29T12:13:17.092Z,68.89
2022-12-29T12:14:19.126Z,68.78
2022-12-29T12:15:21.140Z,68.89
2022-12-29T12:16:23.200Z,68.89
2022-12-29T12:17:25.254Z,68.89
2022-12-29T12:18:27.274Z,68.89
2022-12-29T12:19:29.304Z,68.78
2022-12-29T12:20:31.331Z,68.78
2022-12-29T12:21:33.375Z,68.89
2022-12-29T12:22:35.434Z,68.89
2022-12-29T12:23:37.437Z,69.09
2022-12-29T12:24:39.459Z,69.39
2022-12-29T12:25:41.494Z,69.29
2022-12-29T12:26:43.556Z,69.09
2022-12-29T12:27:45.566Z,68.89
2022-12-29T12:28:47.574Z,68.89
2022-12-29T12:29:49.628Z,68.89
2022-12-29T12:30:51.739Z,68.99
2022-12-29T12:31:53.730Z,68.99
2022-12-29T12:32:55.731Z,68.99
2022-12-29T12:33:57.757Z,69.09
2022-12-29T12:34:59.812Z,69.19
2022-12-29T12:36:01.844Z,68.99
2022-12-29T12:37:03.867Z,68.89
2022-12-29T12:38:05.886Z,68.99
2022-12-29T12:39:07.902Z,68.99
2022-12-29T12:40:09.939Z,69.09
2022-12-29T12:41:14.448Z,69.29
2022-12-29T12:42:13.255Z,69.39
2022-12-29T12:43:15.308Z,69.43
2022-12-29T12:44:17.320Z,69.53
2022-12-29T12:45:19.372Z,69.63
2022-12-29T12:46:21.510Z,69.83
2022-12-29T12:47:24.457Z,69.94
2022-12-29T12:48:24.377Z,69.94
2022-12-29T12:49:26.412Z,69.94
2022-12-29T12:50:28.432Z,69.94
2022-12-29T12:51:30.486Z,70.04
2022-12-29T12:52:32.504Z,70.34
2022-12-29T12:53:34.512Z,70.34
2022-12-29T12:54:36.548Z,70.44
2022-12-29T12:55:38.621Z,70.68
2022-12-29T12:56:40.653Z,70.68
2022-12-29T12:57:42.692Z,70.88
2022-12-29T12:58:44.712Z,70.88
2022-12-29T12:59:46.702Z,70.78
2022-12-29T13:00:48.771Z,70.88
2022-12-29T13:01:50.860Z,70.88
2022-12-29T13:02:53.047Z,70.78
2022-12-29T13:03:54.179Z,70.68
2022-12-29T13:04:55.168Z,70.68
2022-12-29T13:05:57.207Z,70.58
2022-12-29T13:06:59.227Z,70.48
2022-12-29T13:08:01.265Z,70.58
2022-12-29T13:09:03.288Z,70.37
2022-12-29T13:10:05.349Z,70.37
2022-12-29T13:11:07.379Z,70.48
2022-12-29T13:12:09.393Z,70.48
2022-12-29T13:13:11.494Z,70.27
2022-12-29T13:14:13.512Z,70.24
2022-12-29T13:15:15.567Z,70.37
2022-12-29T13:16:17.653Z,70.27
2022-12-29T13:17:19.674Z,70.24
2022-12-29T13:18:21.712Z,70.37
2022-12-29T13:19:23.725Z,70.17
2022-12-29T13:20:25.747Z,70.27
2022-12-29T13:21:27.786Z,70.27
2022-12-29T13:22:29.814Z,70.48
2022-12-29T13:23:31.832Z,70.68
2022-12-29T13:24:33.832Z,70.58
2022-12-29T13:25:35.877Z,70.68
2022-12-29T13:26:37.903Z,70.78
2022-12-29T13:27:39.957Z,70.98
2022-12-29T13:28:41.975Z,71.02
2022-12-29T13:29:43.980Z,71.02
2022-12-29T13:30:46.083Z,71.22
2022-12-29T13:31:48.148Z,71.09
2022-12-29T13:32:50.148Z,70.98
2022-12-29T13:33:52.277Z,70.98
2022-12-29T13:34:54.283Z,70.81
2022-12-29T13:35:56.320Z,70.81
2022-12-29T13:36:58.359Z,70.92
2022-12-29T13:38:00.378Z,70.92
2022-12-29T13:39:02.411Z,70.92
2022-12-29T13:40:04.445Z,70.78
2022-12-29T13:41:06.497Z,70.88
2022-12-29T13:42:08.536Z,70.58
2022-12-29T13:43:10.533Z,70.44
2022-12-29T13:44:12.546Z,70.58
2022-12-29T13:45:14.577Z,70.88
2022-12-29T13:46:16.652Z,70.88
2022-12-29T13:47:18.641Z,70.88
2022-12-29T13:48:20.689Z,70.98
2022-12-29T13:49:22.708Z,71.09
2022-12-29T13:50:24.722Z,71.12
2022-12-29T13:51:28.226Z,71.32
2022-12-29T13:52:28.426Z,71.32
2022-12-29T13:53:30.437Z,71.22
2022-12-29T13:54:32.461Z,71.36
2022-12-29T13:55:34.493Z,71.56
2022-12-29T13:56:36.579Z,71.66
2022-12-29T13:57:38.650Z,71.97
2022-12-29T13:58:41.303Z,72.07
2022-12-29T13:59:42.248Z,71.97
2022-12-29T14:00:44.288Z,71.97
2022-12-29T14:01:46.561Z,72.31
2022-12-29T14:02:47.906Z,72.21
2022-12-29T14:03:49.383Z,72.31
2022-12-29T14:04:50.420Z,72.31
2022-12-29T14:05:52.453Z,72.71
2022-12-29T14:06:54.492Z,72.61
2022-12-29T14:07:56.598Z,72.61
2022-12-29T14:08:58.633Z,72.82
2022-12-29T14:10:00.692Z,73.05
2022-12-29T14:11:02.695Z,73.05
2022-12-29T14:12:04.724Z,72.92
2022-12-29T14:13:06.771Z,73.02
2022-12-29T14:14:08.756Z,73.12
2022-12-29T14:15:10.773Z,73.02
2022-12-29T14:16:12.882Z,73.05
2022-12-29T14:17:15.646Z,73.16
2022-12-29T14:18:16.572Z,73.36
2022-12-29T14:19:18.583Z,73.36
2022-12-29T14:20:20.628Z,73.46
2022-12-29T14:21:22.654Z,73.46
2022-12-29T14:22:30.715Z,73.57
2022-12-29T14:23:26.150Z,73.66
2022-12-29T14:24:28.211Z,73.66
2022-12-29T14:25:30.263Z,73.66
2022-12-29T14:26:32.284Z,73.77
2022-12-29T14:27:34.280Z,73.97
2022-12-29T14:28:36.302Z,74.07
2022-12-29T14:29:38.340Z,74.07
2022-12-29T14:30:40.361Z,73.97
2022-12-29T14:31:42.595Z,74.01
2022-12-29T14:32:43.518Z,73.80
2022-12-29T14:33:45.535Z,73.90
2022-12-29T14:34:51.951Z,74.01
2022-12-29T14:35:49.008Z,74.01
2022-12-29T14:36:51.032Z,74.11
2022-12-29T14:37:53.065Z,74.21
2022-12-29T14:38:55.114Z,74.21
2022-12-29T14:39:57.119Z,74.31
2022-12-29T14:40:59.146Z,74.45
2022-12-29T14:42:01.166Z,74.45
2022-12-29T14:43:03.180Z,74.51
2022-12-29T14:44:05.239Z,74.55
2022-12-29T14:45:07.273Z,74.55
2022-12-29T14:46:09.284Z,74.55
2022-12-29T14:47:11.366Z,74.35
2022-12-29T14:48:19.407Z,74.45
2022-12-29T14:49:14.840Z,74.45
2022-12-29T14:50:16.873Z,74.24
2022-12-29T14:51:18.901Z,74.55
2022-12-29T14:52:20.915Z,74.45
2022-12-29T14:53:22.974Z,74.65
2022-12-29T14:54:24.076Z,74.55
2022-12-29T14:55:26.111Z,74.55
2022-12-29T14:56:28.162Z,74.55
2022-12-29T14:57:30.176Z,74.55
2022-12-29T14:58:32.193Z,74.45
2022-12-29T14:59:34.261Z,74.45
2022-12-29T15:00:36.294Z,74.55
2022-12-29T15:01:38.494Z,74.45
2022-12-29T15:02:39.717Z,74.35
2022-12-29T15:03:40.738Z,74.45
2022-12-29T15:04:42.779Z,74.45
2022-12-29T15:05:44.858Z,74.45
2022-12-29T15:08:50.906Z,74.45
